Time;durP1;ratioP1;P1;durP2;ratioP2;P2;SDS_P1;SDS_P2;PMS_P1;PMS_P2;Temp;Humidity;BMP_temperature;BMP_pressure;BME280_temperature;BME280_humidity;BME280_pressure;Samples;Min_cycle;Max_cycle;Signal;HPM_P1;HPM_P2
2023/12/11 00:01:07;;;;;;;4.95;1.70;;;22.70;48.80;;;;;;3109156;28;20101;-44
2023/12/11 00:02:39;;;;;;;3.90;1.63;;;22.70;48.70;;;;;;3111181;28;20053;-42
2023/12/11 00:04:11;;;;;;;2.65;1.40;;;22.70;48.70;;;;;;3109820;28;20444;-42
2023/12/11 00:05:43;;;;;;;2.95;1.60;;;22.70;48.70;;;;;;3111174;28;20046;-43
2023/12/11 00:07:14;;;;;;;2.63;1.42;;;22.70;48.70;;;;;;3110812;28;20049;-45
2023/12/11 00:08:45;;;;;;;2.45;1.50;;;22.70;48.60;;;;;;3110086;28;20037;-42
2023/12/11 00:10:16;;;;;;;2.60;1.45;;;22.70;48.80;;;;;;3109725;28;20050;-44
2023/12/11 00:11:48;;;;;;;3.58;1.40;;;22.70;48.70;;;;;;3109103;28;20050;-43
2023/12/11 00:13:18;;;;;;;2.72;1.50;;;22.70;48.80;;;;;;3110596;28;20481;-44
2023/12/11 00:14:50;;;;;;;3.72;1.65;;;22.60;48.70;;;;;;3110332;28;20049;-42
2023/12/11 00:16:20;;;;;;;3.97;1.25;;;22.60;48.70;;;;;;3110631;28;20056;-42
2023/12/11 00:17:52;;;;;;;2.72;1.48;;;22.60;48.70;;;;;;3110756;28;20042;-43
2023/12/11 00:19:25;;;;;;;2.50;1.50;;;22.60;48.60;;;;;;3110919;28;20049;-42
2023/12/11 00:20:56;;;;;;;2.83;1.50;;;22.60;48.70;;;;;;3110425;28;20054;-42
2023/12/11 00:22:28;;;;;;;2.95;1.50;;;22.60;48.70;;;;;;3110770;28;20049;-43
2023/12/11 00:23:58;;;;;;;2.20;1.52;;;22.60;48.70;;;;;;3108063;28;20137;-44
2023/12/11 00:25:32;;;;;;;3.47;1.67;;;22.60;48.60;;;;;;3110247;28;20176;-44
2023/12/11 00:27:03;;;;;;;3.67;1.70;;;22.70;48.60;;;;;;3109376;28;20053;-42
2023/12/11 00:28:35;;;;;;;2.30;1.38;;;22.60;48.80;;;;;;3110947;28;20416;-43
2023/12/11 00:30:06;;;;;;;3.13;1.70;;;22.70;48.50;;;;;;3110095;28;20056;-43
2023/12/11 00:31:39;;;;;;;2.45;1.45;;;22.60;48.60;;;;;;3110685;28;20057;-43
2023/12/11 00:33:09;;;;;;;3.72;1.42;;;22.60;48.50;;;;;;3110666;28;20749;-42
2023/12/11 00:34:42;;;;;;;4.20;1.50;;;22.50;48.80;;;;;;3110914;28;20121;-42
2023/12/11 00:36:13;;;;;;;2.72;1.60;;;22.50;48.70;;;;;;3108804;28;20050;-45
2023/12/11 00:37:44;;;;;;;3.42;1.70;;;22.50;48.60;;;;;;3109114;28;20045;-43
2023/12/11 00:39:16;;;;;;;2.88;1.40;;;22.60;48.60;;;;;;3108693;28;20073;-43
2023/12/11 00:40:47;;;;;;;2.47;1.42;;;22.40;48.70;;;;;;3107635;28;20042;-43
2023/12/11 00:42:18;;;;;;;2.38;1.40;;;22.40;49.00;;;;;;3109793;28;20054;-44
2023/12/11 00:43:50;;;;;;;4.10;1.58;;;22.40;48.80;;;;;;3109720;28;20396;-43
2023/12/11 00:45:21;;;;;;;3.03;1.60;;;22.20;49.00;;;;;;3108656;28;20054;-44
2023/12/11 00:46:52;;;;;;;3.70;1.83;;;22.30;48.90;;;;;;3110401;28;20683;-44
2023/12/11 00:48:23;;;;;;;2.85;1.55;;;22.30;48.90;;;;;;3110646;28;20049;-44
2023/12/11 00:49:56;;;;;;;2.70;1.73;;;22.40;48.90;;;;;;3110410;28;20046;-42
2023/12/11 00:51:27;;;;;;;2.22;1.30;;;22.30;48.90;;;;;;3109309;28;20049;-43
2023/12/11 00:52:58;;;;;;;2.00;1.30;;;22.20;49.00;;;;;;3109185;28;20404;-45
2023/12/11 00:54:32;;;;;;;3.28;1.50;;;22.20;49.20;;;;;;3110690;28;20480;-42
2023/12/11 00:56:04;;;;;;;2.40;1.40;;;22.10;49.30;;;;;;3109018;28;20076;-42
2023/12/11 00:57:35;;;;;;;4.53;1.65;;;22.10;49.90;;;;;;3110062;28;20403;-42
2023/12/11 00:59:06;;;;;;;3.08;1.30;;;22.10;49.30;;;;;;3110094;28;20052;-43
2023/12/11 01:00:40;;;;;;;2.47;1.17;;;22.10;49.50;;;;;;3107954;28;20049;-43
2023/12/11 01:02:13;;;;;;;3.42;1.40;;;22.00;49.50;;;;;;3108863;28;20120;-43
2023/12/11 01:03:43;;;;;;;2.88;1.60;;;22.00;49.50;;;;;;3110330;28;20046;-42
2023/12/11 01:05:16;;;;;;;2.88;1.35;;;21.90;49.60;;;;;;3108977;28;20488;-42
2023/12/11 01:06:47;;;;;;;2.80;1.50;;;22.00;49.50;;;;;;3110698;28;20060;-43
2023/12/11 01:08:18;;;;;;;3.55;1.52;;;22.00;49.50;;;;;;3110108;28;20045;-42
2023/12/11 01:09:49;;;;;;;2.38;1.40;;;22.00;49.40;;;;;;3109953;28;20046;-42
2023/12/11 01:11:21;;;;;;;1.67;1.02;;;21.90;49.60;;;;;;3108023;28;21434;-44
2023/12/11 01:12:52;;;;;;;1.65;1.30;;;21.90;49.80;;;;;;3110073;28;20385;-42
2023/12/11 01:14:24;;;;;;;2.40;1.48;;;21.80;49.70;;;;;;3110266;28;20061;-43
2023/12/11 01:15:55;;;;;;;2.03;1.40;;;21.80;49.70;;;;;;3109951;28;20054;-42
2023/12/11 01:17:27;;;;;;;2.88;1.20;;;21.90;49.70;;;;;;3110154;28;20054;-43
2023/12/11 01:18:57;;;;;;;2.53;1.30;;;21.80;49.80;;;;;;3108227;28;20049;-43
2023/12/11 01:20:30;;;;;;;1.85;1.20;;;21.70;50.00;;;;;;3110202;28;20495;-42
2023/12/11 01:22:01;;;;;;;3.15;1.40;;;21.80;49.80;;;;;;3109005;28;20677;-42
2023/12/11 01:23:33;;;;;;;2.33;1.20;;;21.80;49.60;;;;;;3109698;28;20054;-42
2023/12/11 01:25:05;;;;;;;2.53;1.23;;;21.80;49.80;;;;;;3109577;28;20508;-42
2023/12/11 01:26:35;;;;;;;1.75;1.00;;;21.70;49.80;;;;;;3108836;28;20133;-42
2023/12/11 01:28:07;;;;;;;2.20;1.13;;;21.80;50.50;;;;;;3110338;28;20426;-42
2023/12/11 01:29:38;;;;;;;3.22;1.15;;;21.80;49.70;;;;;;3109740;28;20049;-42
2023/12/11 01:31:09;;;;;;;2.60;1.42;;;21.70;49.90;;;;;;3109903;28;20389;-43
2023/12/11 01:32:40;;;;;;;2.70;1.30;;;21.70;49.90;;;;;;3109247;28;20456;-42
2023/12/11 01:34:11;;;;;;;3.47;1.30;;;21.70;50.00;;;;;;3109874;28;20041;-42
2023/12/11 01:35:44;;;;;;;1.75;1.20;;;21.70;50.00;;;;;;3108247;28;20046;-44
2023/12/11 01:37:16;;;;;;;2.15;1.30;;;21.70;50.00;;;;;;3109644;28;20496;-42
2023/12/11 01:38:51;;;;;;;2.45;1.35;;;21.60;50.10;;;;;;3109224;28;20057;-42
2023/12/11 01:40:21;;;;;;;2.30;1.30;;;21.50;50.30;;;;;;3108741;28;20041;-42
2023/12/11 01:41:53;;;;;;;1.48;1.00;;;21.60;50.10;;;;;;3109350;28;20712;-43
2023/12/11 01:43:24;;;;;;;1.90;1.20;;;21.70;50.10;;;;;;3109424;28;20068;-43
2023/12/11 01:44:59;;;;;;;2.88;1.23;;;21.70;49.90;;;;;;3110225;28;20480;-42
2023/12/11 01:46:31;;;;;;;2.58;1.15;;;21.70;50.30;;;;;;3109008;28;20589;-43
2023/12/11 01:48:01;;;;;;;2.53;1.23;;;21.70;50.00;;;;;;3109621;28;20061;-43
2023/12/11 01:49:33;;;;;;;2.50;1.20;;;21.80;49.80;;;;;;3107991;28;20061;-44
2023/12/11 01:51:05;;;;;;;1.98;1.10;;;21.60;49.90;;;;;;3109865;28;20050;-42
2023/12/11 01:52:37;;;;;;;3.53;1.50;;;21.60;50.00;;;;;;3109231;28;20049;-43
2023/12/11 01:54:08;;;;;;;2.40;1.20;;;21.60;50.00;;;;;;3109270;28;20492;-43
2023/12/11 01:55:39;;;;;;;1.98;1.08;;;21.60;50.00;;;;;;3109079;28;20041;-42
2023/12/11 01:57:10;;;;;;;3.30;1.30;;;21.50;50.20;;;;;;3109236;28;20061;-43
2023/12/11 01:58:42;;;;;;;2.05;1.20;;;21.50;50.40;;;;;;3109316;28;20046;-43
2023/12/11 02:00:12;;;;;;;2.38;1.10;;;21.50;50.30;;;;;;3107634;28;20048;-42
2023/12/11 02:01:44;;;;;;;2.40;1.20;;;21.50;50.30;;;;;;3107495;28;20042;-42
2023/12/11 02:03:15;;;;;;;1.80;1.00;;;21.40;50.40;;;;;;3108352;28;20057;-42
2023/12/11 02:04:49;;;;;;;1.38;0.90;;;21.50;51.00;;;;;;3109851;28;20046;-43
2023/12/11 02:06:21;;;;;;;2.67;1.20;;;21.50;50.10;;;;;;3108824;28;20406;-43
2023/12/11 02:07:53;;;;;;;1.48;0.95;;;21.50;50.10;;;;;;3106855;28;20058;-44
2023/12/11 02:09:26;;;;;;;2.22;1.20;;;21.50;50.10;;;;;;3108965;28;20053;-43
2023/12/11 02:10:58;;;;;;;1.92;1.20;;;21.50;50.20;;;;;;3106646;28;20143;-42
2023/12/11 02:12:29;;;;;;;2.03;1.13;;;21.40;50.50;;;;;;3109316;28;20076;-42
2023/12/11 02:14:00;;;;;;;2.17;1.00;;;21.70;50.00;;;;;;3109840;28;20042;-42
2023/12/11 02:15:41;;;;;;;2.75;1.20;;;21.70;49.60;;;;;;3109384;28;20065;-43
2023/12/11 02:17:13;;;;;;;1.95;1.40;;;22.00;49.00;;;;;;3107384;28;20080;-42
2023/12/11 02:18:43;;;;;;;1.63;1.00;;;22.00;48.90;;;;;;3109018;28;20495;-43
2023/12/11 02:20:15;;;;;;;2.22;1.23;;;22.00;48.80;;;;;;3109949;28;20046;-42
2023/12/11 02:21:47;;;;;;;2.58;1.20;;;22.00;48.70;;;;;;3109093;28;20057;-42
2023/12/11 02:23:22;;;;;;;1.98;1.00;;;21.90;49.00;;;;;;3109684;28;20046;-42
2023/12/11 02:24:58;;;;;;;1.35;0.98;;;21.90;48.70;;;;;;3109443;28;20503;-43
2023/12/11 02:26:30;;;;;;;5.50;1.00;;;21.90;48.70;;;;;;3107060;28;20042;-42
2023/12/11 02:28:02;;;;;;;2.58;1.17;;;22.00;48.60;;;;;;3108763;28;20058;-43
2023/12/11 02:29:34;;;;;;;2.22;0.80;;;22.00;48.60;;;;;;3108521;28;20116;-42
2023/12/11 02:31:05;;;;;;;2.40;1.20;;;21.90;48.60;;;;;;3109074;28;20050;-43
2023/12/11 02:32:36;;;;;;;1.75;1.10;;;22.00;48.50;;;;;;3108380;28;20828;-42
2023/12/11 02:34:07;;;;;;;1.85;1.02;;;21.80;48.80;;;;;;3108623;28;20054;-42
2023/12/11 02:35:43;;;;;;;1.55;0.95;;;21.80;48.90;;;;;;3108887;28;20042;-43
2023/12/11 02:37:14;;;;;;;1.98;1.20;;;21.80;48.80;;;;;;3107486;28;20129;-43
2023/12/11 02:38:46;;;;;;;1.30;0.93;;;21.80;48.90;;;;;;3109861;28;20053;-42
2023/12/11 02:40:16;;;;;;;2.88;1.10;;;21.80;48.90;;;;;;3109613;28;20053;-43
2023/12/11 02:41:52;;;;;;;1.98;1.13;;;21.80;48.80;;;;;;3109497;28;20427;-42
2023/12/11 02:43:23;;;;;;;2.63;1.25;;;21.80;48.90;;;;;;3107999;28;20488;-41
2023/12/11 02:44:54;;;;;;;2.13;1.15;;;21.70;48.90;;;;;;3108857;28;20053;-42
2023/12/11 02:46:25;;;;;;;2.13;0.93;;;21.80;48.80;;;;;;3109488;28;20498;-44
2023/12/11 02:48:02;;;;;;;2.50;1.10;;;21.80;48.80;;;;;;3109018;28;20165;-42
2023/12/11 02:49:33;;;;;;;2.00;1.20;;;21.70;48.80;;;;;;3107831;28;20050;-42
2023/12/11 02:51:05;;;;;;;2.55;1.30;;;21.70;48.80;;;;;;3109582;28;20058;-42
2023/12/11 02:52:37;;;;;;;1.85;1.13;;;21.70;48.90;;;;;;3109108;28;20496;-42
2023/12/11 02:54:07;;;;;;;1.40;1.00;;;21.60;48.90;;;;;;3109556;28;20054;-42
2023/12/11 02:55:39;;;;;;;1.98;1.10;;;21.70;48.80;;;;;;3109779;28;20068;-45
2023/12/11 02:57:11;;;;;;;1.23;0.82;;;21.70;48.80;;;;;;3109099;28;20077;-42
2023/12/11 02:58:44;;;;;;;2.25;1.10;;;21.70;48.70;;;;;;3109518;28;20080;-42
2023/12/11 03:00:15;;;;;;;2.22;1.20;;;21.70;48.80;;;;;;3108640;28;20046;-42
2023/12/11 03:01:46;;;;;;;1.95;1.13;;;21.60;48.80;;;;;;3109368;28;20081;-42
2023/12/11 03:03:17;;;;;;;1.30;0.98;;;21.60;48.80;;;;;;3109496;28;20412;-42
2023/12/11 03:04:49;;;;;;;1.92;1.13;;;21.60;48.80;;;;;;3109571;28;20054;-42
2023/12/11 03:06:20;;;;;;;1.92;1.20;;;21.60;48.90;;;;;;3109390;28;20488;-42
2023/12/11 03:07:51;;;;;;;1.48;0.80;;;21.50;48.90;;;;;;3109439;28;20060;-42
2023/12/11 03:09:23;;;;;;;1.25;0.90;;;21.60;48.80;;;;;;3109138;28;20046;-42
2023/12/11 03:10:53;;;;;;;1.75;1.08;;;21.60;48.80;;;;;;3109220;28;20045;-42
2023/12/11 03:12:26;;;;;;;1.65;1.17;;;21.60;48.80;;;;;;3109096;28;20049;-42
2023/12/11 03:13:57;;;;;;;1.63;0.90;;;21.60;48.70;;;;;;3109317;28;20054;-42
2023/12/11 03:15:31;;;;;;;1.88;1.02;;;21.60;48.60;;;;;;3109616;28;20595;-42
2023/12/11 03:17:01;;;;;;;3.15;0.98;;;21.60;48.70;;;;;;3109024;28;20057;-42
2023/12/11 03:18:33;;;;;;;3.05;0.90;;;21.50;48.80;;;;;;3109717;28;20042;-42
2023/12/11 03:20:05;;;;;;;1.40;0.90;;;21.50;48.80;;;;;;3109411;28;20053;-43
2023/12/11 03:21:36;;;;;;;1.83;1.00;;;21.50;48.70;;;;;;3108969;28;20229;-42
2023/12/11 03:23:07;;;;;;;1.65;1.00;;;21.50;48.70;;;;;;3106605;28;20053;-42
2023/12/11 03:24:41;;;;;;;1.70;1.00;;;21.50;48.80;;;;;;3109664;28;20554;-42
2023/12/11 03:26:12;;;;;;;1.65;1.00;;;21.40;48.90;;;;;;3107711;28;20046;-43
2023/12/11 03:27:45;;;;;;;2.17;1.10;;;21.50;48.80;;;;;;3108612;28;20046;-42
2023/12/11 03:29:16;;;;;;;1.50;1.08;;;21.40;49.00;;;;;;3110465;28;20045;-43
2023/12/11 03:30:48;;;;;;;1.80;1.20;;;21.40;49.10;;;;;;3111543;28;20054;-42
2023/12/11 03:32:18;;;;;;;2.50;1.02;;;21.30;49.10;;;;;;3109797;28;20050;-43
2023/12/11 03:33:50;;;;;;;3.03;1.17;;;21.40;49.10;;;;;;3111070;28;20049;-41
2023/12/11 03:35:20;;;;;;;2.13;0.93;;;21.30;49.00;;;;;;3107954;28;20148;-43
2023/12/11 03:36:52;;;;;;;1.92;0.80;;;21.30;49.00;;;;;;3109364;28;20500;-44
2023/12/11 03:38:23;;;;;;;2.15;1.10;;;21.30;49.00;;;;;;3110992;28;20053;-42
2023/12/11 03:39:54;;;;;;;2.05;1.00;;;21.30;49.00;;;;;;3109782;28;20093;-42
2023/12/11 03:41:32;;;;;;;1.75;1.00;;;21.40;48.90;;;;;;3111464;28;20098;-42
2023/12/11 03:43:04;;;;;;;1.75;1.00;;;21.30;49.00;;;;;;3109871;28;20061;-42
2023/12/11 03:44:35;;;;;;;1.93;1.07;;;21.30;49.00;;;;;;3110255;28;20073;-45
2023/12/11 03:46:07;;;;;;;1.80;1.00;;;21.30;49.00;;;;;;3111478;28;20297;-44
2023/12/11 03:47:37;;;;;;;3.13;1.20;;;21.40;48.90;;;;;;3111213;28;20046;-42
2023/12/11 03:49:09;;;;;;;2.47;1.17;;;21.30;49.00;;;;;;3111364;28;20065;-43
2023/12/11 03:50:40;;;;;;;1.63;1.10;;;21.30;49.70;;;;;;3111279;28;20377;-42
2023/12/11 03:52:11;;;;;;;1.80;1.08;;;21.30;49.00;;;;;;3110933;28;20049;-43
2023/12/11 03:53:42;;;;;;;1.73;1.00;;;21.30;48.90;;;;;;3111515;28;20046;-41
2023/12/11 03:55:14;;;;;;;2.35;1.23;;;21.40;48.80;;;;;;3111284;28;20053;-42
2023/12/11 03:56:44;;;;;;;3.00;1.10;;;21.40;48.90;;;;;;3108629;28;20069;-43
2023/12/11 03:58:17;;;;;;;2.55;1.10;;;21.40;48.90;;;;;;3111138;28;20042;-43
2023/12/11 03:59:48;;;;;;;2.30;1.15;;;21.30;49.00;;;;;;3110456;28;20518;-42
2023/12/11 04:01:19;;;;;;;2.55;1.17;;;21.30;49.00;;;;;;3111046;28;20046;-43
2023/12/11 04:02:50;;;;;;;3.03;1.13;;;21.30;48.70;;;;;;3111060;28;20538;-42
2023/12/11 04:04:22;;;;;;;2.58;1.23;;;21.40;48.90;;;;;;3111216;28;20133;-42
2023/12/11 04:05:52;;;;;;;1.58;0.80;;;21.40;48.90;;;;;;3109910;28;20050;-42
2023/12/11 04:07:24;;;;;;;2.75;0.95;;;21.30;49.40;;;;;;3110725;28;20053;-42
2023/12/11 04:08:55;;;;;;;2.05;1.00;;;21.30;49.70;;;;;;3109484;28;20054;-42
2023/12/11 04:10:26;;;;;;;1.90;1.10;;;21.40;49.80;;;;;;3110590;28;20504;-42
2023/12/11 04:11:57;;;;;;;1.73;0.90;;;21.50;49.80;;;;;;3110734;28;20057;-42
2023/12/11 04:13:30;;;;;;;2.58;1.10;;;21.50;49.90;;;;;;3110046;28;20046;-42
2023/12/11 04:15:01;;;;;;;2.75;0.93;;;21.60;49.80;;;;;;3110515;28;20382;-43
2023/12/11 04:16:32;;;;;;;2.00;1.05;;;21.80;49.70;;;;;;3109349;28;20053;-43
2023/12/11 04:18:03;;;;;;;2.60;1.00;;;21.80;49.50;;;;;;3111034;28;20702;-43
2023/12/11 04:19:35;;;;;;;2.55;1.20;;;21.90;49.50;;;;;;3110676;28;20041;-43
2023/12/11 04:21:06;;;;;;;2.58;1.10;;;22.00;49.50;;;;;;3109239;28;20484;-42
2023/12/11 04:22:37;;;;;;;1.77;1.13;;;22.00;49.40;;;;;;3109071;28;20042;-43
2023/12/11 04:24:08;;;;;;;2.30;1.10;;;22.10;49.30;;;;;;3110097;28;20050;-42
2023/12/11 04:25:40;;;;;;;2.97;1.17;;;22.20;49.10;;;;;;3110445;28;20473;-43
2023/12/11 04:27:10;;;;;;;3.10;0.90;;;22.20;49.10;;;;;;3107866;28;20049;-43
2023/12/11 04:28:43;;;;;;;3.63;1.10;;;22.30;49.10;;;;;;3110792;28;20563;-42
2023/12/11 04:30:14;;;;;;;3.58;1.30;;;22.40;49.00;;;;;;3109511;28;20508;-45
2023/12/11 04:31:45;;;;;;;2.80;1.17;;;22.40;49.00;;;;;;3108688;28;20049;-43
2023/12/11 04:33:16;;;;;;;2.97;1.20;;;22.40;48.90;;;;;;3106624;28;20050;-43
2023/12/11 04:34:48;;;;;;;2.45;1.10;;;22.40;49.10;;;;;;3108476;28;20077;-42
2023/12/11 04:36:19;;;;;;;2.72;1.30;;;22.40;49.00;;;;;;3110693;28;20064;-43
2023/12/11 04:37:50;;;;;;;2.75;1.30;;;22.50;48.90;;;;;;3109471;28;20054;-43
2023/12/11 04:39:22;;;;;;;3.60;1.38;;;22.60;48.90;;;;;;3107138;28;20049;-43
2023/12/11 04:40:52;;;;;;;2.58;1.08;;;22.60;48.90;;;;;;3110510;28;20042;-43
2023/12/11 04:42:24;;;;;;;2.80;1.40;;;22.60;48.90;;;;;;3110220;28;20381;-43
2023/12/11 04:43:56;;;;;;;4.60;1.40;;;22.60;48.80;;;;;;3110627;28;20053;-43
2023/12/11 04:45:27;;;;;;;3.30;1.48;;;22.70;48.80;;;;;;3110662;28;20397;-43
2023/12/11 04:46:58;;;;;;;2.42;1.08;;;22.80;48.80;;;;;;3110464;28;20058;-43
2023/12/11 04:48:30;;;;;;;6.22;1.70;;;22.80;48.70;;;;;;3110639;28;20079;-44
2023/12/11 04:50:01;;;;;;;3.00;1.40;;;22.80;48.90;;;;;;3110673;28;20108;-43
2023/12/11 04:51:32;;;;;;;3.17;1.20;;;22.90;48.90;;;;;;3109728;28;20041;-42
2023/12/11 04:53:04;;;;;;;3.88;1.60;;;23.00;48.80;;;;;;3110313;28;20427;-43
2023/12/11 04:54:36;;;;;;;3.78;1.50;;;23.00;48.90;;;;;;3110061;28;20056;-42
2023/12/11 04:56:07;;;;;;;3.08;1.55;;;23.00;48.90;;;;;;3110191;28;20050;-43
2023/12/11 04:57:39;;;;;;;2.50;1.30;;;23.10;48.90;;;;;;3109637;28;20046;-43
2023/12/11 04:59:12;;;;;;;3.22;1.40;;;23.10;48.80;;;;;;3108187;28;20046;-44
2023/12/11 05:00:42;;;;;;;3.17;1.48;;;23.10;48.70;;;;;;3104994;28;20046;-43
2023/12/11 05:02:14;;;;;;;3.15;1.50;;;23.20;48.70;;;;;;3109399;28;20049;-42
2023/12/11 05:03:44;;;;;;;2.47;1.25;;;23.20;48.70;;;;;;3108786;28;20057;-43
2023/12/11 05:05:16;;;;;;;5.18;1.35;;;23.20;48.80;;;;;;3108164;28;20140;-42
2023/12/11 05:06:47;;;;;;;4.32;1.63;;;23.20;48.70;;;;;;3109177;28;20061;-43
2023/12/11 05:08:18;;;;;;;1.85;1.10;;;23.20;48.90;;;;;;3107808;28;20050;-44
2023/12/11 05:09:49;;;;;;;3.17;1.60;;;23.20;48.80;;;;;;3109040;28;20049;-42
2023/12/11 05:11:21;;;;;;;4.15;1.30;;;23.20;48.80;;;;;;3105649;28;20046;-44
2023/12/11 05:12:51;;;;;;;3.88;1.50;;;23.20;48.80;;;;;;3108211;28;20056;-42
2023/12/11 05:14:24;;;;;;;2.67;1.33;;;23.20;48.90;;;;;;3110356;28;20046;-43
2023/12/11 05:15:56;;;;;;;2.88;1.33;;;23.10;49.00;;;;;;3108609;28;20050;-44
2023/12/11 05:17:26;;;;;;;3.38;1.65;;;23.10;49.00;;;;;;3110373;28;20046;-42
2023/12/11 05:18:58;;;;;;;3.40;1.35;;;23.10;49.00;;;;;;3105842;28;20050;-44
2023/12/11 05:20:29;;;;;;;2.80;1.10;;;23.10;49.00;;;;;;3110420;28;20050;-43
2023/12/11 05:22:00;;;;;;;3.40;1.42;;;23.10;49.00;;;;;;3110306;28;20414;-43
2023/12/11 05:23:31;;;;;;;3.40;1.30;;;23.20;49.10;;;;;;3109994;28;20061;-42
2023/12/11 05:25:05;;;;;;;3.38;1.70;;;23.20;49.00;;;;;;3110227;28;20496;-42
2023/12/11 05:26:36;;;;;;;3.22;1.50;;;23.10;49.10;;;;;;3110092;28;20052;-42
2023/12/11 05:28:07;;;;;;;3.13;1.33;;;23.20;49.30;;;;;;3110450;28;20046;-42
2023/12/11 05:29:39;;;;;;;3.55;1.42;;;23.20;49.30;;;;;;3110090;28;20049;-43
2023/12/11 05:31:11;;;;;;;2.90;1.35;;;23.20;49.70;;;;;;3109529;28;20092;-43
2023/12/11 05:32:43;;;;;;;4.43;1.52;;;23.30;49.00;;;;;;3110055;28;20652;-42
2023/12/11 05:34:14;;;;;;;3.27;1.53;;;23.30;49.00;;;;;;3110022;28;20045;-43
2023/12/11 05:35:45;;;;;;;3.95;1.55;;;23.40;48.90;;;;;;3110167;28;20289;-43
2023/12/11 05:37:17;;;;;;;3.88;1.70;;;23.40;49.00;;;;;;3109399;28;20057;-43
2023/12/11 05:38:47;;;;;;;3.78;1.58;;;23.40;48.90;;;;;;3110059;28;20050;-43
2023/12/11 05:40:19;;;;;;;3.70;1.63;;;23.50;48.90;;;;;;3109873;28;20056;-43
2023/12/11 05:41:50;;;;;;;3.75;1.65;;;23.50;48.80;;;;;;3106793;28;20053;-44
2023/12/11 05:43:21;;;;;;;3.28;1.35;;;23.50;48.90;;;;;;3109725;28;20515;-43
2023/12/11 05:44:53;;;;;;;4.45;1.70;;;23.50;48.90;;;;;;3109857;28;20050;-44
2023/12/11 05:46:25;;;;;;;3.95;1.70;;;23.50;48.90;;;;;;3110044;28;20073;-44
2023/12/11 05:47:57;;;;;;;5.10;1.70;;;23.50;48.90;;;;;;3109731;28;20049;-44
2023/12/11 05:49:27;;;;;;;3.65;1.70;;;23.60;48.80;;;;;;3109964;28;20049;-43
2023/12/11 05:50:59;;;;;;;4.18;1.98;;;23.60;48.60;;;;;;3109550;28;20050;-43
2023/12/11 05:52:30;;;;;;;5.03;1.92;;;23.60;48.70;;;;;;3109462;28;20100;-43
2023/12/11 05:54:02;;;;;;;5.35;1.88;;;23.70;48.70;;;;;;3109973;28;20053;-43
2023/12/11 05:55:32;;;;;;;3.50;1.60;;;23.60;48.80;;;;;;3107630;28;20133;-44
2023/12/11 05:57:04;;;;;;;5.50;1.90;;;23.70;48.80;;;;;;3107076;28;20063;-43
2023/12/11 05:58:36;;;;;;;4.60;2.40;;;23.60;48.80;;;;;;3109781;28;20056;-43
2023/12/11 06:00:11;;;;;;;3.63;1.60;;;23.70;48.90;;;;;;3109320;28;20049;-42
2023/12/11 06:01:43;;;;;;;5.47;2.00;;;23.60;49.00;;;;;;3108737;28;20041;-42
2023/12/11 06:03:15;;;;;;;5.00;1.90;;;23.40;49.30;;;;;;3109269;28;20492;-42
2023/12/11 06:04:45;;;;;;;3.63;1.60;;;23.30;49.80;;;;;;3109400;28;20057;-44
2023/12/11 06:06:17;;;;;;;5.47;1.88;;;23.20;49.80;;;;;;3108898;28;20050;-43
2023/12/11 06:07:48;;;;;;;3.58;1.65;;;23.20;49.70;;;;;;3106462;28;20054;-43
2023/12/11 06:09:19;;;;;;;4.20;1.80;;;23.20;49.70;;;;;;3108978;28;20042;-43
2023/12/11 06:10:50;;;;;;;3.20;1.55;;;23.30;49.60;;;;;;3107386;28;20052;-45
2023/12/11 06:12:21;;;;;;;3.97;1.60;;;23.40;49.30;;;;;;3108393;28;20049;-45
2023/12/11 06:13:52;;;;;;;3.22;1.70;;;23.40;49.20;;;;;;3109483;28;20072;-43
2023/12/11 06:15:25;;;;;;;5.90;1.75;;;23.40;49.10;;;;;;3109797;28;20045;-44
2023/12/11 06:16:56;;;;;;;4.07;1.83;;;23.40;49.00;;;;;;3109513;28;20061;-42
2023/12/11 06:18:27;;;;;;;3.65;1.50;;;23.50;48.90;;;;;;3109008;28;20050;-42
2023/12/11 06:19:58;;;;;;;4.03;1.85;;;23.60;48.70;;;;;;3108777;28;20065;-42
2023/12/11 06:21:29;;;;;;;4.55;1.70;;;23.50;48.70;;;;;;3108529;28;20074;-43
2023/12/11 06:23:00;;;;;;;5.20;1.83;;;23.60;48.70;;;;;;3109500;28;20054;-43
2023/12/11 06:24:32;;;;;;;3.90;2.00;;;23.60;48.60;;;;;;3109753;28;20069;-44
2023/12/11 06:26:03;;;;;;;4.63;1.75;;;23.60;48.60;;;;;;3109211;28;20054;-44
2023/12/11 06:27:34;;;;;;;4.03;1.60;;;23.50;48.70;;;;;;3109414;28;20049;-44
2023/12/11 06:29:05;;;;;;;3.38;1.40;;;23.60;48.60;;;;;;3109656;28;20046;-43
2023/12/11 06:30:38;;;;;;;3.58;1.60;;;23.50;48.70;;;;;;3109560;28;20052;-43
2023/12/11 06:32:09;;;;;;;5.55;1.70;;;23.60;48.60;;;;;;3109816;28;20050;-42
2023/12/11 06:33:41;;;;;;;5.13;1.73;;;23.50;48.60;;;;;;3109339;28;20053;-42
2023/12/11 06:35:11;;;;;;;3.67;1.63;;;23.60;48.70;;;;;;3108835;28;20071;-43
2023/12/11 06:36:43;;;;;;;5.65;2.10;;;23.60;48.60;;;;;;3107514;28;20038;-43
2023/12/11 06:38:14;;;;;;;4.47;1.70;;;23.60;48.60;;;;;;3109369;28;20527;-43
2023/12/11 06:39:46;;;;;;;4.95;1.70;;;23.60;48.60;;;;;;3109023;28;20050;-42
2023/12/11 06:41:18;;;;;;;5.35;2.00;;;23.60;48.40;;;;;;3109146;28;20460;-44
2023/12/11 06:42:50;;;;;;;5.70;1.83;;;23.60;48.50;;;;;;3109285;28;20397;-42
2023/12/11 06:44:21;;;;;;;4.47;1.58;;;23.70;48.40;;;;;;3107723;28;20060;-43
2023/12/11 06:45:54;;;;;;;3.45;1.60;;;23.70;48.40;;;;;;3109479;28;20054;-44
2023/12/11 06:47:24;;;;;;;4.47;1.60;;;23.60;48.40;;;;;;3108873;28;20175;-43
2023/12/11 06:48:59;;;;;;;4.18;1.80;;;23.60;48.50;;;;;;3109230;28;20046;-42
2023/12/11 06:50:29;;;;;;;4.05;1.70;;;23.50;48.70;;;;;;3105869;28;20053;-44
2023/12/11 06:52:01;;;;;;;4.78;1.70;;;23.60;48.70;;;;;;3108432;28;20050;-44
2023/12/11 06:53:31;;;;;;;3.78;1.70;;;23.60;48.70;;;;;;3109433;28;20923;-43
2023/12/11 06:55:04;;;;;;;5.55;1.80;;;23.60;48.60;;;;;;3109855;28;20121;-44
2023/12/11 06:56:34;;;;;;;4.60;2.03;;;23.60;48.70;;;;;;3108557;28;20930;-43
2023/12/11 06:58:06;;;;;;;4.63;1.90;;;23.50;48.70;;;;;;3109597;28;20053;-44
2023/12/11 06:59:36;;;;;;;3.30;1.50;;;23.50;48.70;;;;;;3109437;28;20050;-43
2023/12/11 07:01:10;;;;;;;4.63;1.90;;;23.50;48.90;;;;;;3108893;28;20045;-44
2023/12/11 07:02:41;;;;;;;3.88;1.58;;;23.50;48.90;;;;;;3109554;28;20046;-43
2023/12/11 07:04:13;;;;;;;4.80;1.75;;;23.60;48.80;;;;;;3111964;28;20053;-44
2023/12/11 07:05:44;;;;;;;5.57;1.52;;;23.50;48.80;;;;;;3108966;28;20054;-42
2023/12/11 07:07:16;;;;;;;3.42;1.60;;;23.50;48.70;;;;;;3109397;28;20045;-44
2023/12/11 07:08:46;;;;;;;5.57;1.70;;;23.50;48.80;;;;;;3111165;28;20054;-43
2023/12/11 07:10:18;;;;;;;4.20;1.55;;;23.50;48.70;;;;;;3111213;28;20053;-44
2023/12/11 07:11:54;;;;;;;3.72;1.63;;;23.60;48.70;;;;;;3110983;28;20101;-42
2023/12/11 07:13:26;;;;;;;4.68;1.67;;;23.60;48.30;;;;;;3110156;28;20385;-43
2023/12/11 07:14:57;;;;;;;4.15;1.77;;;23.60;48.40;;;;;;3110047;28;20057;-44
2023/12/11 07:16:29;;;;;;;4.72;1.63;;;23.50;48.50;;;;;;3108689;28;20042;-44
2023/12/11 07:18:00;;;;;;;3.60;1.40;;;23.60;48.60;;;;;;3109443;28;20833;-44
2023/12/11 07:19:32;;;;;;;3.40;1.58;;;23.60;48.30;;;;;;3111641;28;20050;-42
2023/12/11 07:21:06;;;;;;;4.30;1.80;;;23.60;48.30;;;;;;3111825;28;20054;-42
2023/12/11 07:22:38;;;;;;;4.10;1.63;;;23.60;48.50;;;;;;3110813;28;20049;-43
2023/12/11 07:24:09;;;;;;;4.07;1.60;;;23.60;48.60;;;;;;3111859;28;20054;-43
2023/12/11 07:25:40;;;;;;;4.20;1.73;;;23.60;48.50;;;;;;3110834;28;20050;-43
2023/12/11 07:27:12;;;;;;;2.90;1.40;;;23.60;48.40;;;;;;3110176;28;20049;-43
2023/12/11 07:28:42;;;;;;;3.58;1.50;;;23.50;48.70;;;;;;3109590;28;20536;-41
2023/12/11 07:30:15;;;;;;;4.22;1.90;;;23.40;48.70;;;;;;3110650;28;20038;-42
2023/12/11 07:31:48;;;;;;;3.20;1.52;;;;;;;;;;3110870;28;20057;-43
2023/12/11 07:33:19;;;;;;;4.38;1.50;;;23.50;48.10;;;;;;3111536;28;20523;-43
2023/12/11 07:34:50;;;;;;;5.50;1.65;;;23.50;48.40;;;;;;3110819;28;20062;-43
2023/12/11 07:36:22;;;;;;;4.57;1.80;;;23.50;48.30;;;;;;3108592;28;20093;-42
2023/12/11 07:37:52;;;;;;;3.15;1.40;;;23.60;48.10;;;;;;3111178;28;20104;-43
2023/12/11 07:39:24;;;;;;;3.22;1.48;;;23.40;48.30;;;;;;3109832;28;20046;-42
2023/12/11 07:40:55;;;;;;;6.00;1.70;;;23.30;48.60;;;;;;3109283;28;20050;-44
2023/12/11 07:42:27;;;;;;;5.15;1.90;;;23.30;49.10;;;;;;3109354;28;20498;-43
2023/12/11 07:43:58;;;;;;;9.10;2.05;;;23.20;49.30;;;;;;3108601;28;20042;-42
2023/12/11 07:45:29;;;;;;;4.10;1.58;;;23.10;49.60;;;;;;3108436;28;20419;-43
2023/12/11 07:47:02;;;;;;;4.70;1.60;;;23.10;49.80;;;;;;3109750;28;20419;-42
2023/12/11 07:48:33;;;;;;;4.97;1.80;;;23.10;49.80;;;;;;3109546;28;20045;-42
2023/12/11 07:50:06;;;;;;;8.27;1.42;;;23.10;49.80;;;;;;3109830;28;20052;-43
2023/12/11 07:51:36;;;;;;;;;;;23.20;50.00;;;;;;3108229;28;20385;-42
2023/12/11 07:53:08;;;;;;;7.00;1.80;;;23.10;50.10;;;;;;3110463;28;19925;-46
2023/12/11 07:54:38;;;;;;;5.47;1.70;;;23.10;50.40;;;;;;3107920;28;20057;-43
2023/12/11 07:56:18;;;;;;;7.90;1.63;;;23.00;50.50;;;;;;3109198;28;20482;-44
2023/12/11 07:57:49;;;;;;;3.03;1.50;;;23.00;50.70;;;;;;3108034;28;20054;-43